createdAt,value
2022-09-01T00:00:02.002Z,101082.00
2022-09-01T00:05:03.782Z,101082.00
2022-09-01T00:10:04.425Z,101080.00
2022-09-01T00:15:04.784Z,101082.00
2022-09-01T00:20:04.920Z,101084.00
2022-09-01T00:25:06.056Z,101088.00
2022-09-01T00:30:05.778Z,101088.00
2022-09-01T00:35:06.402Z,101088.00
2022-09-01T00:40:06.854Z,101086.00
2022-09-01T00:45:06.845Z,101086.00
2022-09-01T00:50:08.832Z,101080.00
2022-09-01T00:55:08.850Z,101076.00
2022-09-01T01:00:10.672Z,101076.00
2022-09-01T01:05:15.128Z,101076.00
2022-09-01T01:10:14.377Z,101074.00
2022-09-01T01:15:14.797Z,101068.00
2022-09-01T01:20:33.398Z,101068.00
2022-09-01T01:25:33.814Z,101070.00
2022-09-01T01:30:35.665Z,101072.00
2022-09-01T01:35:36.549Z,101076.00
2022-09-01T01:40:36.985Z,101078.00
2022-09-01T01:45:36.895Z,101082.00
2022-09-01T01:50:37.603Z,101084.00
2022-09-01T01:55:38.080Z,101088.00
2022-09-01T02:00:37.882Z,101090.00
2022-09-01T02:05:37.936Z,101094.00
2022-09-01T02:10:37.878Z,101094.00
2022-09-01T02:15:40.158Z,101092.00
2022-09-01T02:20:40.559Z,101092.00
2022-09-01T02:25:58.971Z,101092.00
2022-09-01T02:30:45.322Z,101090.00
2022-09-01T02:35:44.917Z,101090.00
2022-09-01T02:40:46.908Z,101090.00
2022-09-01T02:45:46.997Z,101086.00
2022-09-01T02:50:49.324Z,101086.00
2022-09-01T02:55:48.881Z,101084.00
2022-09-01T03:00:50.798Z,101086.00
2022-09-01T03:05:51.701Z,101082.00
2022-09-01T03:10:55.054Z,101080.00
2022-09-01T03:15:55.007Z,101080.00
2022-09-01T03:20:56.451Z,101082.00
2022-09-01T03:25:56.304Z,101080.00
2022-09-01T03:30:55.922Z,101084.00
2022-09-01T03:35:56.040Z,101080.00
2022-09-01T03:40:59.169Z,101084.00
2022-09-01T03:46:00.798Z,101082.00
2022-09-01T03:51:02.817Z,101082.00
2022-09-01T03:56:05.211Z,101082.00
2022-09-01T04:01:05.137Z,101078.00
2022-09-01T04:06:07.975Z,101078.00
2022-09-01T04:11:08.345Z,101076.00
2022-09-01T04:16:11.042Z,101074.00
2022-09-01T04:21:12.834Z,101074.00
2022-09-01T04:26:15.342Z,101072.00
2022-09-01T04:31:16.874Z,101074.00
2022-09-01T04:36:21.022Z,101074.00
2022-09-01T04:41:21.723Z,101074.00
2022-09-01T04:46:22.171Z,101080.00
2022-09-01T04:51:27.033Z,101080.00
2022-09-01T04:56:41.929Z,101080.00
2022-09-01T05:01:47.169Z,101078.00
2022-09-01T05:06:51.508Z,101080.00
2022-09-01T05:11:52.870Z,101082.00
2022-09-01T05:16:54.224Z,101084.00
2022-09-01T05:21:55.970Z,101086.00
2022-09-01T05:26:56.333Z,101086.00
2022-09-01T05:31:56.517Z,101092.00
2022-09-01T05:36:57.936Z,101092.00
2022-09-01T05:41:58.706Z,101090.00
2022-09-01T05:46:59.639Z,101094.00
2022-09-01T05:52:02.222Z,101096.00
2022-09-01T05:57:30.191Z,101097.00
2022-09-01T06:02:09.685Z,101097.00
2022-09-01T06:07:13.644Z,101101.00
2022-09-01T06:12:18.904Z,101101.00
2022-09-01T06:17:21.350Z,101099.00
2022-09-01T06:22:23.744Z,101099.00
2022-09-01T06:27:24.421Z,101096.00
2022-09-01T06:32:25.593Z,101096.00
2022-09-01T06:37:27.221Z,101097.00
2022-09-01T06:42:29.268Z,101097.00
2022-09-01T06:47:29.215Z,101105.00
2022-09-01T06:53:32.181Z,101113.00
2022-09-01T07:02:50.293Z,101115.00
2022-09-01T07:08:04.714Z,101115.00
2022-09-01T07:13:11.841Z,101111.00
2022-09-01T07:17:58.203Z,101111.00
2022-09-01T07:23:07.196Z,101107.00
2022-09-01T07:28:01.453Z,101105.00
2022-09-01T07:38:47.460Z,101094.00
2022-09-01T07:43:29.803Z,101086.00
2022-09-01T07:49:02.718Z,101082.00
2022-09-01T07:53:32.323Z,101082.00
2022-09-01T07:58:34.805Z,101080.00
2022-09-01T08:03:35.428Z,101078.00
2022-09-01T08:08:35.938Z,101076.00
2022-09-01T08:13:41.617Z,101076.00
2022-09-01T08:18:49.056Z,101076.00
2022-09-01T08:23:45.058Z,101070.00
2022-09-01T08:28:46.207Z,101070.00
2022-09-01T08:33:48.306Z,101064.00
2022-09-01T08:38:48.258Z,101058.00
2022-09-01T08:43:48.350Z,101060.00
2022-09-01T08:53:50.999Z,101058.00
2022-09-01T08:59:05.394Z,101058.00
2022-09-01T09:04:05.181Z,101044.00
2022-09-01T09:09:05.205Z,101042.00
2022-09-01T09:14:06.437Z,101036.00
2022-09-01T09:19:06.325Z,101034.00
2022-09-01T09:24:06.303Z,101032.00
2022-09-01T09:29:06.224Z,101028.00
2022-09-01T09:34:06.234Z,101024.00
2022-09-01T09:39:06.319Z,101014.00
2022-09-01T09:44:06.640Z,101012.00
2022-09-01T09:49:06.274Z,101007.00
2022-09-01T09:54:06.762Z,101001.00
2022-09-01T09:59:06.223Z,100995.00
2022-09-01T10:04:06.405Z,100989.00
2022-09-01T10:09:06.339Z,100983.00
2022-09-01T10:14:07.226Z,100975.00
2022-09-01T10:19:12.481Z,100969.00
2022-09-01T10:24:17.858Z,100965.00
2022-09-01T10:29:15.835Z,100965.00
2022-09-01T10:34:15.217Z,100962.00
2022-09-01T10:39:15.422Z,100958.00
2022-09-01T10:44:15.428Z,100962.00
2022-09-01T10:49:16.426Z,100956.00
2022-09-01T10:54:16.327Z,100956.00
2022-09-01T10:59:35.727Z,100956.00
2022-09-01T11:04:18.413Z,100954.00
2022-09-01T11:09:18.391Z,100956.00
2022-09-01T11:14:18.303Z,100948.00
2022-09-01T11:19:18.284Z,100946.00
2022-09-01T11:24:18.523Z,100940.00
2022-09-01T11:29:18.314Z,100946.00
2022-09-01T11:34:18.627Z,100942.00
2022-09-01T11:39:19.158Z,100944.00
2022-09-01T11:44:19.373Z,100940.00
2022-09-01T11:49:19.355Z,100938.00
2022-09-01T11:54:19.385Z,100936.00
2022-09-01T11:59:19.318Z,100936.00
2022-09-01T12:04:21.938Z,100928.00
2022-09-01T12:09:22.489Z,100926.00
2022-09-01T12:14:22.509Z,100922.00
2022-09-01T12:19:22.338Z,100918.00
2022-09-01T12:24:22.359Z,100917.00
2022-09-01T12:29:22.966Z,100913.00
2022-09-01T12:34:23.350Z,100907.00
2022-09-01T12:39:23.440Z,100909.00
2022-09-01T12:44:23.391Z,100907.00
2022-09-01T12:49:25.101Z,100897.00
2022-09-01T12:54:25.679Z,100897.00
2022-09-01T12:59:37.566Z,100893.00
2022-09-01T13:04:27.864Z,100893.00
2022-09-01T13:09:27.474Z,100891.00
2022-09-01T13:14:29.327Z,100881.00
2022-09-01T13:19:30.513Z,100877.00
2022-09-01T13:24:31.923Z,100875.00
2022-09-01T13:29:33.142Z,100869.00
2022-09-01T13:34:33.582Z,100865.00
2022-09-01T13:39:34.912Z,100860.00
2022-09-01T13:44:35.423Z,100856.00
2022-09-01T13:50:04.633Z,100848.00
2022-09-01T13:54:37.452Z,100842.00
2022-09-01T13:59:37.514Z,100844.00
2022-09-01T14:04:37.681Z,100848.00
2022-09-01T14:09:37.740Z,100842.00
2022-09-01T14:19:39.458Z,100836.00
2022-09-01T14:24:40.951Z,100834.00
2022-09-01T14:34:41.591Z,100832.00
2022-09-01T14:39:41.557Z,100830.00
2022-09-01T14:44:43.108Z,100826.00
2022-09-01T14:49:43.535Z,100820.00
2022-09-01T14:54:43.504Z,100819.00
2022-09-01T14:59:43.520Z,100817.00
2022-09-01T15:04:43.708Z,100819.00
2022-09-01T15:09:43.682Z,100815.00
2022-09-01T15:14:43.529Z,100813.00
2022-09-01T15:19:43.555Z,100809.00
2022-09-01T15:24:43.614Z,100807.00
2022-09-01T15:29:46.827Z,100801.00
2022-09-01T15:34:46.566Z,100792.00
2022-09-01T15:39:48.583Z,100790.00
2022-09-01T15:44:48.946Z,100786.00
2022-09-01T15:49:48.874Z,100784.00
2022-09-01T15:54:48.545Z,100780.00
2022-09-01T15:59:48.682Z,100777.00
2022-09-01T16:04:51.643Z,100775.00
2022-09-01T16:09:53.817Z,100771.00
2022-09-01T16:14:54.717Z,100769.00
2022-09-01T16:19:55.517Z,100769.00
2022-09-01T16:24:57.425Z,100767.00
2022-09-01T16:29:57.592Z,100761.00
2022-09-01T16:34:57.644Z,100759.00
2022-09-01T16:39:57.663Z,100757.00
2022-09-01T16:44:57.585Z,100757.00
2022-09-01T16:49:59.687Z,100755.00
2022-09-01T16:54:59.600Z,100751.00
2022-09-01T16:59:59.615Z,100749.00
2022-09-01T17:04:59.624Z,100747.00
2022-09-01T17:09:59.685Z,100747.00
2022-09-01T17:14:59.946Z,100747.00
2022-09-01T17:20:00.613Z,100745.00
2022-09-01T17:25:00.671Z,100745.00
2022-09-01T17:30:00.651Z,100745.00
2022-09-01T17:35:00.664Z,100745.00
2022-09-01T17:40:00.884Z,100747.00
2022-09-01T17:45:00.690Z,100751.00
2022-09-01T17:50:00.712Z,100749.00
2022-09-01T17:55:00.671Z,100749.00
2022-09-01T18:00:01.193Z,100747.00
2022-09-01T18:05:00.745Z,100743.00
2022-09-01T18:10:00.775Z,100747.00
2022-09-01T18:15:00.705Z,100749.00
2022-09-01T18:20:00.685Z,100753.00
2022-09-01T18:25:01.668Z,100755.00
2022-09-01T18:30:04.774Z,100761.00
2022-09-01T18:35:04.799Z,100765.00
2022-09-01T18:40:05.955Z,100767.00
2022-09-01T18:45:05.780Z,100775.00
2022-09-01T18:50:05.691Z,100780.00
2022-09-01T18:55:08.722Z,100784.00
2022-09-01T19:00:18.997Z,100784.00
2022-09-01T19:05:10.782Z,100786.00
2022-09-01T19:10:12.619Z,100786.00
2022-09-01T19:15:14.706Z,100790.00
2022-09-01T19:20:14.817Z,100801.00
2022-09-01T19:25:33.057Z,100803.00
2022-09-01T19:30:35.375Z,100807.00
2022-09-01T19:35:34.726Z,100805.00
2022-09-01T19:40:37.066Z,100809.00
2022-09-01T19:45:36.836Z,100811.00
2022-09-01T19:50:37.226Z,100813.00
2022-09-01T19:55:36.875Z,100815.00
2022-09-01T20:00:38.377Z,100819.00
2022-09-01T20:05:38.941Z,100819.00
2022-09-01T20:10:38.877Z,100819.00
2022-09-01T20:15:39.554Z,100819.00
2022-09-01T20:20:44.453Z,100820.00
2022-09-01T20:25:44.864Z,100826.00
2022-09-01T20:30:44.901Z,100828.00
2022-09-01T20:35:44.747Z,100826.00
2022-09-01T20:40:44.971Z,100828.00
2022-09-01T20:45:45.615Z,100820.00
2022-09-01T20:50:45.863Z,100820.00
2022-09-01T20:55:45.786Z,100820.00
2022-09-01T21:00:45.780Z,100822.00
2022-09-01T21:05:46.787Z,100822.00
2022-09-01T21:10:46.859Z,100826.00
2022-09-01T21:15:46.896Z,100826.00
2022-09-01T21:20:46.796Z,100826.00
2022-09-01T21:25:46.820Z,100826.00
2022-09-01T21:30:46.862Z,100820.00
2022-09-01T21:35:46.809Z,100820.00
2022-09-01T21:40:46.949Z,100817.00
2022-09-01T21:45:46.874Z,100815.00
2022-09-01T21:50:47.094Z,100813.00
2022-09-01T21:55:46.856Z,100813.00
2022-09-01T22:00:46.865Z,100815.00
2022-09-01T22:05:46.875Z,100809.00
2022-09-01T22:10:46.880Z,100807.00
2022-09-01T22:15:46.980Z,100807.00
2022-09-01T22:20:46.862Z,100805.00
2022-09-01T22:25:47.145Z,100801.00
2022-09-01T22:30:47.020Z,100803.00
2022-09-01T22:35:46.902Z,100801.00
2022-09-01T22:40:46.917Z,100803.00
2022-09-01T22:45:47.049Z,100803.00
2022-09-01T22:50:46.900Z,100788.00
2022-09-01T22:55:47.669Z,100790.00
2022-09-01T23:00:48.047Z,100790.00
2022-09-01T23:05:47.925Z,100786.00
2022-09-01T23:10:47.987Z,100784.00
2022-09-01T23:15:47.918Z,100780.00
2022-09-01T23:20:47.920Z,100777.00
2022-09-01T23:25:52.885Z,100775.00
2022-09-01T23:30:50.396Z,100773.00
2022-09-01T23:35:49.920Z,100767.00
2022-09-01T23:40:49.935Z,100773.00
2022-09-01T23:45:50.002Z,100773.00
2022-09-01T23:50:50.546Z,100767.00
2022-09-01T23:55:50.924Z,100761.00
